Terminal Aerodrome Forecast
Issued by NWS

Home | Current Version | Previous Version | Text Only | Print | Product List | Glossary On
Versions: 1 2 3 4 5 6 7 8 9 10 11 12 13 14 15 16 17 18 19 20 21 22 23 24 25 26 27 28
645
FTUS45 KGJT 241720
TAFVEL
TAF
KVEL 241720Z 2418/2518 12006KT P6SM FEW120 SCT140
     FM242000 23013G20KT P6SM SCT120 SCT200
     FM250100 26009KT P6SM SCT130
     FM250300 29007KT P6SM SCT110
     FM250700 VRB03KT P6SM SCT250
     FM251600 23007KT P6SM SCT200=

USA.gov is the U.S. government's official web portal to all federal, state and local government web resources and services.